createdAt,value
2023-05-14T00:00:06.567Z,102206.16
2023-05-14T00:02:33.117Z,102204.03
2023-05-14T00:04:59.710Z,102205.53
2023-05-14T00:07:30.900Z,102205.22
2023-05-14T00:09:58.394Z,102199.56
2023-05-14T00:12:26.368Z,102184.88
2023-05-14T00:14:53.655Z,102194.63
2023-05-14T00:17:20.109Z,102178.91
2023-05-14T00:19:46.643Z,102180.59
2023-05-14T00:22:13.168Z,102189.34
2023-05-14T00:24:39.897Z,102190.19
2023-05-14T00:27:07.261Z,102185.06
2023-05-14T00:29:33.890Z,102182.44
2023-05-14T00:32:00.359Z,102183.13
2023-05-14T00:34:26.906Z,102176.00
2023-05-14T00:36:53.732Z,102172.06
2023-05-14T00:39:20.318Z,102172.75
2023-05-14T00:41:46.791Z,102166.59
2023-05-14T00:44:13.262Z,102169.94
2023-05-14T00:46:40.249Z,102160.69
2023-05-14T00:49:06.904Z,102164.16
2023-05-14T00:51:33.619Z,102146.66
2023-05-14T00:54:00.633Z,102161.03
2023-05-14T00:56:27.773Z,102155.59
2023-05-14T00:58:54.325Z,102141.25
2023-05-14T01:01:21.177Z,102140.25
2023-05-14T01:03:49.045Z,102143.56
2023-05-14T01:06:23.131Z,102146.72
2023-05-14T01:09:06.486Z,102148.03
2023-05-14T01:11:41.052Z,102152.16
2023-05-14T01:14:14.287Z,102145.53
2023-05-14T01:16:40.932Z,102152.16
2023-05-14T01:19:17.009Z,102144.56
2023-05-14T01:21:43.670Z,102146.19
2023-05-14T01:24:10.379Z,102142.09
2023-05-14T01:26:37.388Z,102149.84
2023-05-14T01:29:18.512Z,102147.34
2023-05-14T01:31:47.647Z,102142.25
2023-05-14T01:34:15.810Z,102145.03
2023-05-14T01:36:43.978Z,102151.81
2023-05-14T01:39:12.007Z,102149.34
2023-05-14T01:41:42.290Z,102150.78
2023-05-14T01:44:11.906Z,102149.31
2023-05-14T01:46:38.883Z,102146.81
2023-05-14T01:49:05.659Z,102141.03
2023-05-14T01:51:32.475Z,102141.22
2023-05-14T01:53:59.101Z,102135.44
2023-05-14T01:56:25.901Z,102136.38
2023-05-14T01:58:52.747Z,102136.88
2023-05-14T02:01:19.501Z,102137.72
2023-05-14T02:03:46.044Z,102130.47
2023-05-14T02:06:12.737Z,102121.22
2023-05-14T02:08:39.201Z,102120.72
2023-05-14T02:11:05.836Z,102110.63
2023-05-14T02:13:32.342Z,102108.00
2023-05-14T02:15:58.931Z,102109.81
2023-05-14T02:18:25.722Z,102107.84
2023-05-14T02:20:52.376Z,102109.31
2023-05-14T02:23:20.602Z,102117.88
2023-05-14T02:25:50.299Z,102118.22
2023-05-14T02:28:16.983Z,102114.88
2023-05-14T02:30:43.461Z,102120.84
2023-05-14T02:33:10.154Z,102111.75
2023-05-14T02:35:37.441Z,102113.06
2023-05-14T02:38:04.312Z,102107.78
2023-05-14T02:40:30.849Z,102100.06
2023-05-14T02:42:57.408Z,102105.16
2023-05-14T02:45:24.263Z,102106.97
2023-05-14T02:47:50.867Z,102098.53
2023-05-14T02:50:17.516Z,102102.81
2023-05-14T02:52:44.151Z,102099.53
2023-05-14T02:55:11.707Z,102094.91
2023-05-14T02:57:38.291Z,102104.13
2023-05-14T03:00:05.751Z,102091.75
2023-05-14T03:02:32.974Z,102096.88
2023-05-14T03:04:59.924Z,102097.03
2023-05-14T03:07:26.385Z,102093.88
2023-05-14T03:09:52.985Z,102099.16
2023-05-14T03:12:21.128Z,102091.06
2023-05-14T03:14:48.097Z,102083.50
2023-05-14T03:17:14.586Z,102089.59
2023-05-14T03:19:41.359Z,102089.41
2023-05-14T03:22:07.986Z,102092.34
2023-05-14T03:24:35.040Z,102091.53
2023-05-14T03:27:01.523Z,102092.34
2023-05-14T03:29:28.001Z,102087.56
2023-05-14T03:31:54.741Z,102092.16
2023-05-14T03:34:21.408Z,102093.84
2023-05-14T03:36:47.996Z,102088.25
2023-05-14T03:39:19.994Z,102086.44
2023-05-14T03:41:47.703Z,102090.88
2023-05-14T03:44:14.798Z,102085.25
2023-05-14T03:46:41.532Z,102087.38
2023-05-14T03:49:08.758Z,102092.13
2023-05-14T03:51:35.522Z,102086.56
2023-05-14T03:54:02.910Z,102087.06
2023-05-14T03:56:29.537Z,102077.50
2023-05-14T03:58:56.111Z,102071.06
2023-05-14T04:01:22.599Z,102079.84
2023-05-14T04:03:49.163Z,102084.94
2023-05-14T04:06:16.174Z,102072.75
2023-05-14T04:08:42.731Z,102066.47
2023-05-14T04:11:09.304Z,102069.13
2023-05-14T04:13:35.897Z,102077.19
2023-05-14T04:16:02.525Z,102075.53
2023-05-14T04:18:29.544Z,102065.81
2023-05-14T04:20:56.063Z,102072.88
2023-05-14T04:23:22.506Z,102073.56
2023-05-14T04:25:49.234Z,102070.13
2023-05-14T04:28:15.905Z,102077.03
2023-05-14T04:30:42.425Z,102068.28
2023-05-14T04:33:09.023Z,102070.94
2023-05-14T04:35:35.968Z,102067.31
2023-05-14T04:38:03.152Z,102071.28
2023-05-14T04:40:31.228Z,102067.31
2023-05-14T04:42:58.012Z,102074.78
2023-05-14T04:45:24.581Z,102077.56
2023-05-14T04:47:51.430Z,102068.53
2023-05-14T04:50:18.268Z,102076.28
2023-05-14T04:52:44.913Z,102076.44
2023-05-14T04:55:11.431Z,102081.91
2023-05-14T04:57:37.912Z,102074.69
2023-05-14T05:00:09.546Z,102075.69
2023-05-14T05:02:36.253Z,102073.69
2023-05-14T05:05:04.187Z,102082.94
2023-05-14T05:07:30.921Z,102077.69
2023-05-14T05:09:57.528Z,102082.09
2023-05-14T05:12:24.149Z,102084.44
2023-05-14T05:14:50.751Z,102082.28
2023-05-14T05:17:17.288Z,102079.16
2023-05-14T05:19:44.616Z,102075.88
2023-05-14T05:22:11.669Z,102078.50
2023-05-14T05:24:38.255Z,102077.69
2023-05-14T05:27:05.549Z,102084.47
2023-05-14T05:29:32.320Z,102084.97
2023-05-14T05:31:59.330Z,102095.66
2023-05-14T05:34:25.952Z,102091.38
2023-05-14T05:36:52.680Z,102097.16
2023-05-14T05:39:19.233Z,102093.50
2023-05-14T05:41:45.919Z,102089.91
2023-05-14T05:44:13.573Z,102090.56
2023-05-14T05:46:40.377Z,102087.09
2023-05-14T05:49:07.096Z,102093.19
2023-05-14T05:51:33.624Z,102098.66
2023-05-14T05:54:00.209Z,102095.66
2023-05-14T05:56:26.821Z,102097.50
2023-05-14T05:58:53.398Z,102099.31
2023-05-14T06:01:20.020Z,102092.06
2023-05-14T06:03:48.397Z,102086.47
2023-05-14T06:06:15.606Z,102095.03
2023-05-14T06:08:42.114Z,102094.38
2023-05-14T06:11:08.930Z,102098.00
2023-05-14T06:13:35.436Z,102092.38
2023-05-14T06:16:02.132Z,102092.69
2023-05-14T06:18:28.726Z,102104.59
2023-05-14T06:20:56.794Z,102100.91
2023-05-14T06:23:23.352Z,102093.75
2023-05-14T06:25:50.840Z,102092.34
2023-05-14T06:28:17.652Z,102103.91
2023-05-14T06:30:44.439Z,102110.06
2023-05-14T06:33:12.972Z,102115.31
2023-05-14T06:35:39.736Z,102105.53
2023-05-14T06:38:06.606Z,102090.63
2023-05-14T06:40:33.125Z,102095.56
2023-05-14T06:43:00.365Z,102106.75
2023-05-14T06:45:26.963Z,102090.69
2023-05-14T06:47:53.698Z,102103.34
2023-05-14T06:50:20.510Z,102106.34
2023-05-14T06:52:47.175Z,102103.09
2023-05-14T06:55:13.972Z,102094.13
2023-05-14T06:57:40.884Z,102090.16
2023-05-14T07:00:08.623Z,102079.13
2023-05-14T07:02:35.495Z,102088.50
2023-05-14T07:05:03.051Z,102080.13
2023-05-14T07:07:29.724Z,102079.63
2023-05-14T07:09:56.318Z,102087.28
2023-05-14T07:12:22.864Z,102083.31
2023-05-14T07:14:50.274Z,102091.25
2023-05-14T07:17:17.094Z,102095.69
2023-05-14T07:19:43.812Z,102090.22
2023-05-14T07:22:10.550Z,102086.09
2023-05-14T07:24:37.192Z,102086.19
2023-05-14T07:27:04.074Z,102083.06
2023-05-14T07:29:30.953Z,102082.22
2023-05-14T07:31:57.441Z,102080.16
2023-05-14T07:34:24.217Z,102086.00
2023-05-14T07:36:50.826Z,102084.06
2023-05-14T07:39:17.558Z,102080.72
2023-05-14T07:41:44.402Z,102084.56
2023-05-14T07:44:17.110Z,102090.50
2023-05-14T07:46:43.781Z,102078.94
2023-05-14T07:49:10.629Z,102073.00
2023-05-14T07:51:37.238Z,102073.47
2023-05-14T07:54:04.165Z,102077.53
2023-05-14T07:56:30.745Z,102070.81
2023-05-14T07:58:57.372Z,102070.31
2023-05-14T08:01:24.020Z,102072.91
2023-05-14T08:03:50.903Z,102059.28
2023-05-14T08:06:17.718Z,102065.78
2023-05-14T08:08:44.303Z,102073.31
2023-05-14T08:11:11.301Z,102071.69
2023-05-14T08:13:38.153Z,102075.31
2023-05-14T08:16:05.081Z,102076.88
2023-05-14T08:18:31.735Z,102071.19
2023-05-14T08:20:58.330Z,102069.84
2023-05-14T08:23:24.889Z,102061.34
2023-05-14T08:25:51.492Z,102070.72
2023-05-14T08:28:18.206Z,102072.31
2023-05-14T08:30:44.789Z,102064.22
2023-05-14T08:33:11.558Z,102063.25
2023-05-14T08:35:38.282Z,102063.91
2023-05-14T08:38:04.946Z,102058.31
2023-05-14T08:40:31.957Z,102056.59
2023-05-14T08:43:00.756Z,102057.22
2023-05-14T08:45:34.018Z,102063.69
2023-05-14T08:48:09.142Z,102050.06
2023-05-14T08:50:36.190Z,102046.84
2023-05-14T08:53:02.955Z,102049.34
2023-05-14T08:55:30.040Z,102047.47
2023-05-14T08:57:56.820Z,102049.34
2023-05-14T09:00:24.525Z,102048.53
2023-05-14T09:02:51.823Z,102052.03
2023-05-14T09:05:19.565Z,102043.09
2023-05-14T09:07:47.008Z,102043.66
2023-05-14T09:10:15.511Z,102042.91
2023-05-14T09:12:42.290Z,102039.84
2023-05-14T09:15:09.299Z,102036.19
2023-05-14T09:17:36.148Z,102040.28
2023-05-14T09:20:04.044Z,102022.25
2023-05-14T09:22:33.679Z,102032.47
2023-05-14T09:25:09.642Z,102029.59
2023-05-14T09:27:36.663Z,102026.13
2023-05-14T09:30:11.053Z,102024.50
2023-05-14T09:32:39.698Z,102025.75
2023-05-14T09:35:23.234Z,102024.56
2023-05-14T09:37:52.383Z,102018.22
2023-05-14T09:40:20.947Z,102013.72
2023-05-14T09:42:51.055Z,102013.47
2023-05-14T09:45:17.760Z,102015.75
2023-05-14T09:47:45.357Z,102007.41
2023-05-14T09:50:12.662Z,102003.28
2023-05-14T09:52:39.462Z,102004.72
2023-05-14T09:55:06.589Z,102004.91
2023-05-14T09:57:33.667Z,102000.22
2023-05-14T10:00:00.326Z,102008.63
2023-05-14T10:02:37.413Z,102016.41
2023-05-14T10:05:07.857Z,102002.88
2023-05-14T10:07:42.399Z,101996.34
2023-05-14T10:10:12.952Z,102003.88
2023-05-14T10:12:40.833Z,102008.22
2023-05-14T10:15:16.707Z,102001.03
2023-05-14T10:17:48.215Z,101993.81
2023-05-14T10:20:17.146Z,101986.66
2023-05-14T10:22:43.986Z,101987.22
2023-05-14T10:25:11.452Z,101998.91
2023-05-14T10:27:38.503Z,101992.53
2023-05-14T10:30:11.938Z,101985.94
2023-05-14T10:32:39.098Z,101985.25
2023-05-14T10:35:20.820Z,101974.59
2023-05-14T10:37:51.182Z,101990.16
2023-05-14T10:40:19.122Z,101986.56
2023-05-14T10:42:47.060Z,101989.75
2023-05-14T10:45:15.367Z,101983.66
2023-05-14T10:47:48.877Z,101978.09
2023-05-14T10:50:17.573Z,101968.13
2023-05-14T10:52:45.728Z,101963.69
2023-05-14T10:55:17.026Z,101968.69
2023-05-14T10:57:45.670Z,101968.41
2023-05-14T11:00:14.134Z,101966.06
2023-05-14T11:02:44.768Z,101963.69
2023-05-14T11:05:17.406Z,101958.97
2023-05-14T11:07:49.386Z,101959.50
2023-05-14T11:10:22.023Z,101959.84
2023-05-14T11:12:51.007Z,101954.88
2023-05-14T11:15:20.650Z,101952.81
2023-05-14T11:17:48.681Z,101948.22
2023-05-14T11:20:16.745Z,101946.72
2023-05-14T11:22:44.378Z,101942.06
2023-05-14T11:25:14.523Z,101941.91
2023-05-14T11:27:43.349Z,101944.94
2023-05-14T11:30:14.070Z,101935.50
2023-05-14T11:32:41.663Z,101937.31
2023-05-14T11:35:08.672Z,101930.53
2023-05-14T11:37:35.277Z,101933.94
2023-05-14T11:40:01.964Z,101931.84
2023-05-14T11:42:28.464Z,101921.94
2023-05-14T11:44:55.134Z,101918.78
2023-05-14T11:47:22.407Z,101917.63
2023-05-14T11:49:49.598Z,101922.72
2023-05-14T11:52:19.502Z,101911.34
2023-05-14T11:54:46.997Z,101914.31
2023-05-14T11:57:17.279Z,101917.28
2023-05-14T11:59:44.254Z,101924.53
2023-05-14T12:02:12.541Z,101915.81
2023-05-14T12:04:40.523Z,101921.06
2023-05-14T12:07:15.062Z,101915.50
2023-05-14T12:09:49.117Z,101907.31
2023-05-14T12:12:19.012Z,101904.88
2023-05-14T12:14:45.697Z,101894.34
2023-05-14T12:17:23.056Z,101901.84
2023-05-14T12:19:51.531Z,101898.16
2023-05-14T12:22:19.994Z,101892.81
2023-05-14T12:24:57.303Z,101899.19
2023-05-14T12:27:28.577Z,101896.28
2023-05-14T12:30:20.605Z,101895.34
2023-05-14T12:32:51.385Z,101884.38
2023-05-14T12:35:18.383Z,101877.91
2023-05-14T12:37:44.899Z,101883.03
2023-05-14T12:40:11.808Z,101879.50
2023-05-14T12:42:38.413Z,101881.38
2023-05-14T12:45:08.023Z,101877.50
2023-05-14T12:47:35.430Z,101874.81
2023-05-14T12:50:02.413Z,101875.97
2023-05-14T12:54:59.112Z,101872.38
2023-05-14T12:57:26.993Z,101868.41
2023-05-14T12:59:53.688Z,101864.75
2023-05-14T13:02:20.650Z,101863.94
2023-05-14T13:04:47.377Z,101858.34
2023-05-14T13:07:14.094Z,101867.25
2023-05-14T13:09:40.584Z,101860.44
2023-05-14T13:12:07.567Z,101864.56
2023-05-14T13:14:34.139Z,101867.47
2023-05-14T13:17:01.033Z,101856.00
2023-05-14T13:19:28.002Z,101852.22
2023-05-14T13:21:54.517Z,101858.13
2023-05-14T13:24:21.084Z,101852.13
2023-05-14T13:26:47.686Z,101856.00
2023-05-14T13:29:14.198Z,101851.31
2023-05-14T13:31:40.770Z,101853.03
2023-05-14T13:34:08.096Z,101844.22
2023-05-14T13:36:39.492Z,101844.94
2023-05-14T13:39:06.884Z,101841.94
2023-05-14T13:41:37.795Z,101843.53
2023-05-14T13:44:04.717Z,101842.75
2023-05-14T13:46:31.244Z,101836.03
2023-05-14T13:48:57.748Z,101840.03
2023-05-14T13:51:24.210Z,101838.94
2023-05-14T13:53:51.032Z,101832.34
2023-05-14T13:56:17.559Z,101838.50
2023-05-14T13:58:44.126Z,101828.34
2023-05-14T14:01:10.791Z,101829.50
2023-05-14T14:03:37.316Z,101831.91
2023-05-14T14:06:03.886Z,101824.13
2023-05-14T14:08:31.178Z,101823.97
2023-05-14T14:10:57.829Z,101818.50
2023-05-14T14:13:24.460Z,101813.13
2023-05-14T14:15:51.301Z,101817.53
2023-05-14T14:18:17.956Z,101809.53
2023-05-14T14:20:44.500Z,101808.56
2023-05-14T14:23:11.059Z,101816.47
2023-05-14T14:25:37.553Z,101806.38
2023-05-14T14:28:04.060Z,101807.41
2023-05-14T14:30:30.567Z,101805.31
2023-05-14T14:32:57.257Z,101808.81
2023-05-14T14:35:24.083Z,101806.03
2023-05-14T14:37:53.644Z,101796.38
2023-05-14T14:40:20.275Z,101796.28
2023-05-14T14:42:46.947Z,101797.09
2023-05-14T14:45:13.591Z,101799.09
2023-05-14T14:47:44.694Z,101796.09
2023-05-14T14:50:12.515Z,101793.91
2023-05-14T14:52:39.730Z,101795.41
2023-05-14T14:55:06.763Z,101792.25
2023-05-14T14:57:33.269Z,101801.69
2023-05-14T15:00:00.872Z,101795.19
2023-05-14T15:02:28.896Z,101803.50
2023-05-14T15:04:55.793Z,101792.59
2023-05-14T15:07:22.686Z,101790.50
2023-05-14T15:09:49.162Z,101795.22
2023-05-14T15:12:17.062Z,101791.16
2023-05-14T15:14:43.549Z,101792.53
2023-05-14T15:17:10.498Z,101795.53
2023-05-14T15:19:37.098Z,101788.78
2023-05-14T15:22:04.190Z,101791.13
2023-05-14T15:24:30.835Z,101784.97
2023-05-14T15:26:57.319Z,101793.19
2023-05-14T15:29:23.875Z,101786.91
2023-05-14T15:31:50.538Z,101786.53
2023-05-14T15:34:17.178Z,101785.44
2023-05-14T15:36:43.631Z,101778.94
2023-05-14T15:39:12.984Z,101774.78
2023-05-14T15:41:39.579Z,101780.66
2023-05-14T15:44:06.246Z,101779.75
2023-05-14T15:46:32.867Z,101773.69
2023-05-14T15:48:59.396Z,101769.69
2023-05-14T15:51:25.954Z,101768.88
2023-05-14T15:53:55.333Z,101761.22
2023-05-14T15:56:22.840Z,101767.41
2023-05-14T15:58:50.091Z,101757.09
2023-05-14T16:01:16.887Z,101756.53
2023-05-14T16:03:43.684Z,101759.22
2023-05-14T16:06:11.534Z,101772.47
2023-05-14T16:08:38.309Z,101765.13
2023-05-14T16:11:05.540Z,101770.09
2023-05-14T16:13:32.375Z,101766.03
2023-05-14T16:15:59.547Z,101761.38
2023-05-14T16:18:26.365Z,101768.22
2023-05-14T16:20:53.472Z,101778.53
2023-05-14T16:23:19.964Z,101774.84
2023-05-14T16:25:46.629Z,101767.81
2023-05-14T16:28:13.728Z,101770.72
2023-05-14T16:30:40.385Z,101773.41
2023-05-14T16:33:06.968Z,101766.34
2023-05-14T16:35:33.951Z,101770.56
2023-05-14T16:38:00.610Z,101777.75
2023-05-14T16:40:27.174Z,101773.84
2023-05-14T16:42:53.660Z,101771.59
2023-05-14T16:45:20.430Z,101773.34
2023-05-14T16:47:47.050Z,101774.06
2023-05-14T16:50:13.556Z,101765.09
2023-05-14T16:52:40.130Z,101779.06
2023-05-14T16:55:07.154Z,101773.03
2023-05-14T16:57:34.431Z,101781.75
2023-05-14T17:00:01.196Z,101773.63
2023-05-14T17:02:27.830Z,101790.88
2023-05-14T17:04:55.245Z,101794.00
2023-05-14T17:07:21.793Z,101784.00
2023-05-14T17:09:48.702Z,101793.75
2023-05-14T17:12:15.417Z,101794.88
2023-05-14T17:14:42.044Z,101783.66
2023-05-14T17:17:08.649Z,101786.00
2023-05-14T17:19:35.178Z,101784.34
2023-05-14T17:22:01.793Z,101787.34
2023-05-14T17:24:28.322Z,101789.38
2023-05-14T17:26:54.799Z,101790.41
2023-05-14T17:29:21.356Z,101791.03
2023-05-14T17:31:48.721Z,101801.00
2023-05-14T17:34:16.198Z,101798.25
2023-05-14T17:36:42.805Z,101796.78
2023-05-14T17:39:09.497Z,101788.25
2023-05-14T17:41:35.925Z,101784.47
2023-05-14T17:44:02.401Z,101789.66
2023-05-14T17:46:29.857Z,101785.69
2023-05-14T17:48:58.802Z,101786.94
2023-05-14T17:51:25.366Z,101794.41
2023-05-14T17:53:51.829Z,101792.03
2023-05-14T17:56:18.890Z,101798.41
2023-05-14T17:58:47.041Z,101798.78
2023-05-14T18:01:13.588Z,101807.13
2023-05-14T18:03:40.339Z,101805.16
2023-05-14T18:06:07.088Z,101809.47
2023-05-14T18:08:33.629Z,101806.69
2023-05-14T18:11:00.922Z,101818.13
2023-05-14T18:13:27.595Z,101816.00
2023-05-14T18:15:56.430Z,101808.56
2023-05-14T18:18:24.005Z,101815.78
2023-05-14T18:20:51.949Z,101820.72
2023-05-14T18:23:18.707Z,101821.41
2023-05-14T18:25:45.272Z,101828.03
2023-05-14T18:28:11.876Z,101824.97
2023-05-14T18:30:38.442Z,101827.22
2023-05-14T18:33:04.981Z,101826.66
2023-05-14T18:35:31.520Z,101827.91
2023-05-14T18:37:57.962Z,101829.34
2023-05-14T18:40:24.500Z,101832.66
2023-05-14T18:42:51.088Z,101829.81
2023-05-14T18:45:17.764Z,101826.97
2023-05-14T18:47:44.320Z,101833.72
2023-05-14T18:50:11.113Z,101841.50
2023-05-14T18:52:38.295Z,101843.13
2023-05-14T18:55:05.200Z,101838.84
2023-05-14T18:57:34.789Z,101844.56
2023-05-14T19:00:02.078Z,101847.78
2023-05-14T19:02:28.913Z,101842.44
2023-05-14T19:04:55.608Z,101849.59
2023-05-14T19:07:22.471Z,101848.75
2023-05-14T19:09:48.974Z,101855.31
2023-05-14T19:12:16.089Z,101849.75
2023-05-14T19:14:42.827Z,101849.91
2023-05-14T19:17:09.434Z,101844.13
2023-05-14T19:19:36.506Z,101845.72
2023-05-14T19:22:03.100Z,101849.97
2023-05-14T19:24:30.235Z,101846.28
2023-05-14T19:26:56.975Z,101847.09
2023-05-14T19:29:23.438Z,101839.25
2023-05-14T19:31:50.054Z,101833.09
2023-05-14T19:34:16.876Z,101839.41
2023-05-14T19:36:43.543Z,101847.72
2023-05-14T19:39:10.908Z,101845.41
2023-05-14T19:41:37.718Z,101851.34
2023-05-14T19:44:04.199Z,101840.84
2023-05-14T19:46:30.798Z,101844.31
2023-05-14T19:48:57.356Z,101841.88
2023-05-14T19:51:25.250Z,101840.44
2023-05-14T19:53:51.818Z,101842.63
2023-05-14T19:56:18.359Z,101840.34
2023-05-14T19:58:44.818Z,101836.25
2023-05-14T20:01:12.051Z,101846.03
2023-05-14T20:03:38.772Z,101845.16
2023-05-14T20:06:06.665Z,101841.84
2023-05-14T20:08:33.403Z,101841.09
2023-05-14T20:11:00.114Z,101842.97
2023-05-14T20:13:26.654Z,101848.78
2023-05-14T20:15:55.076Z,101845.97
2023-05-14T20:18:21.810Z,101837.16
2023-05-14T20:20:49.075Z,101840.41
2023-05-14T20:23:15.941Z,101847.47
2023-05-14T20:25:43.097Z,101836.84
2023-05-14T20:28:10.091Z,101834.41
2023-05-14T20:30:36.891Z,101835.44
2023-05-14T20:33:04.037Z,101831.94
2023-05-14T20:35:30.635Z,101836.72
2023-05-14T20:37:57.492Z,101836.88
2023-05-14T20:40:24.695Z,101828.50
2023-05-14T20:42:51.616Z,101832.81
2023-05-14T20:45:18.246Z,101828.00
2023-05-14T20:47:44.934Z,101832.00
2023-05-14T20:50:11.825Z,101824.63
2023-05-14T20:52:38.389Z,101818.50
2023-05-14T20:55:05.550Z,101820.72
2023-05-14T20:57:32.001Z,101817.63
2023-05-14T20:59:58.693Z,101811.06
2023-05-14T21:02:25.250Z,101820.00
2023-05-14T21:04:52.231Z,101813.44
2023-05-14T21:07:18.776Z,101815.81
2023-05-14T21:09:50.776Z,101813.09
2023-05-14T21:12:17.330Z,101810.25
2023-05-14T21:14:43.921Z,101806.81
2023-05-14T21:17:10.700Z,101817.19
2023-05-14T21:19:37.244Z,101807.16
2023-05-14T21:22:03.852Z,101809.97
2023-05-14T21:24:30.309Z,101818.56
2023-05-14T21:26:56.843Z,101820.78
2023-05-14T21:29:23.371Z,101815.03
2023-05-14T21:31:50.385Z,101812.94
2023-05-14T21:34:16.903Z,101809.19
2023-05-14T21:36:43.406Z,101811.03
2023-05-14T21:39:09.898Z,101809.56
2023-05-14T21:41:36.450Z,101814.41
2023-05-14T21:44:02.939Z,101802.72
2023-05-14T21:46:30.272Z,101806.56
2023-05-14T21:48:57.125Z,101804.28
2023-05-14T21:51:24.215Z,101797.34
2023-05-14T21:53:50.701Z,101792.41
2023-05-14T21:56:17.196Z,101796.28
2023-05-14T21:58:44.592Z,101792.97
2023-05-14T22:01:11.617Z,101792.31
2023-05-14T22:03:38.329Z,101790.06
2023-05-14T22:06:05.362Z,101800.19
2023-05-14T22:08:32.293Z,101797.25
2023-05-14T22:10:58.762Z,101794.16
2023-05-14T22:13:25.293Z,101791.69
2023-05-14T22:16:01.488Z,101781.19
2023-05-14T22:18:36.668Z,101775.44
2023-05-14T22:21:03.665Z,101773.94
2023-05-14T22:23:30.391Z,101780.06
2023-05-14T22:25:57.429Z,101776.41
2023-05-14T22:28:24.125Z,101781.22
2023-05-14T22:30:50.806Z,101776.34
2023-05-14T22:33:19.317Z,101775.88
2023-05-14T22:35:45.899Z,101776.03
2023-05-14T22:38:12.838Z,101775.22
2023-05-14T22:40:39.436Z,101770.75
2023-05-14T22:43:05.914Z,101763.00
2023-05-14T22:45:32.395Z,101763.63
2023-05-14T22:47:59.336Z,101766.28
2023-05-14T22:50:25.948Z,101759.72
2023-05-14T22:52:52.459Z,101754.25
2023-05-14T22:55:19.060Z,101760.53
2023-05-14T22:57:45.855Z,101744.19
2023-05-14T23:00:13.030Z,101751.31
2023-05-14T23:02:39.597Z,101749.22
2023-05-14T23:05:08.116Z,101744.75
2023-05-14T23:07:35.304Z,101742.91
2023-05-14T23:10:01.998Z,101741.28
2023-05-14T23:12:28.473Z,101733.09
2023-05-14T23:14:55.010Z,101736.63
2023-05-14T23:17:21.541Z,101742.72
2023-05-14T23:19:50.428Z,101740.91
2023-05-14T23:22:16.960Z,101736.53
2023-05-14T23:24:43.535Z,101745.63
2023-05-14T23:27:11.357Z,101745.63
2023-05-14T23:29:38.055Z,101739.06
2023-05-14T23:32:04.939Z,101727.66
2023-05-14T23:34:31.485Z,101734.59
2023-05-14T23:36:58.011Z,101727.66
2023-05-14T23:39:24.690Z,101712.28
2023-05-14T23:41:51.798Z,101715.38
2023-05-14T23:44:18.367Z,101715.38
2023-05-14T23:46:45.004Z,101710.25
2023-05-14T23:49:12.254Z,101702.88
2023-05-14T23:51:38.814Z,101700.56
2023-05-14T23:54:05.495Z,101690.38
2023-05-14T23:56:32.138Z,101693.00
2023-05-14T23:58:58.731Z,101687.09
